Time;durP1;ratioP1;P1;durP2;ratioP2;P2;SDS_P1;SDS_P2;PMS_P1;PMS_P2;Temp;Humidity;BMP_temperature;BMP_pressure;BME280_temperature;BME280_humidity;BME280_pressure;Samples;Min_cycle;Max_cycle;Signal;HPM_P1;HPM_P2
2023/07/02 00:01:44;;;;;;;99.57;2.77;;;20.80;55.50;;;;;;4978295;28;20430;-81
2023/07/02 00:04:13;;;;;;;99.37;2.57;;;20.90;55.40;;;;;;4978880;28;20981;-81
2023/07/02 00:06:40;;;;;;;99.90;2.60;;;21.20;54.60;;;;;;4978663;28;20177;-81
2023/07/02 00:09:10;;;;;;;99.80;2.63;;;21.40;53.40;;;;;;4978908;28;20427;-81
2023/07/02 00:11:41;;;;;;;99.40;2.70;;;21.50;54.00;;;;;;4977518;28;20422;-81
2023/07/02 00:14:07;;;;;;;99.20;2.60;;;21.80;52.10;;;;;;4980545;28;20448;-81
2023/07/02 00:16:33;;;;;;;99.67;2.60;;;22.00;51.10;;;;;;4982252;28;20428;-81
2023/07/02 00:18:59;;;;;;;99.40;2.60;;;22.20;51.80;;;;;;4982897;28;20766;-81
2023/07/02 00:21:27;;;;;;;99.30;2.50;;;22.30;50.70;;;;;;4982434;28;20188;-81
2023/07/02 00:23:56;;;;;;;99.70;2.77;;;22.40;50.80;;;;;;4982170;28;20438;-81
2023/07/02 00:26:26;;;;;;;99.57;2.60;;;22.30;50.70;;;;;;4981687;28;20443;-81
2023/07/02 00:28:53;;;;;;;99.50;2.50;;;22.30;51.50;;;;;;4982612;28;20453;-81
2023/07/02 00:31:18;;;;;;;99.30;2.33;;;22.20;51.20;;;;;;4982236;28;20421;-81
2023/07/02 00:33:44;;;;;;;99.97;2.80;;;22.30;51.30;;;;;;4982252;28;20513;-81
2023/07/02 00:36:14;;;;;;;99.50;2.50;;;22.30;50.70;;;;;;4982215;28;20176;-81
2023/07/02 00:38:44;;;;;;;99.70;2.80;;;22.30;51.00;;;;;;4981866;28;20171;-81
2023/07/02 00:41:10;;;;;;;99.70;2.63;;;22.30;51.20;;;;;;4981846;28;20817;-81
2023/07/02 00:43:36;;;;;;;99.50;2.43;;;22.10;51.60;;;;;;4980251;28;20455;-81
2023/07/02 00:46:02;;;;;;;99.90;2.80;;;22.30;52.10;;;;;;4981807;28;20838;-81
2023/07/02 00:48:29;;;;;;;99.53;2.60;;;22.40;50.80;;;;;;4981301;28;20189;-81
2023/07/02 00:50:55;;;;;;;99.90;2.57;;;22.40;50.20;;;;;;4982227;28;20473;-81
2023/07/02 00:53:21;;;;;;;99.57;2.50;;;22.40;50.20;;;;;;4979921;28;20483;-81
2023/07/02 00:55:46;;;;;;;99.60;2.53;;;22.40;50.90;;;;;;4981610;28;20465;-81
2023/07/02 00:58:15;;;;;;;100.13;2.50;;;22.50;48.80;;;;;;4980581;28;20279;-81
2023/07/02 01:00:42;;;;;;;99.50;2.50;;;22.40;50.60;;;;;;4981481;28;20175;-81
2023/07/02 01:03:07;;;;;;;99.70;2.60;;;22.50;47.40;;;;;;4981647;28;20513;-81
2023/07/02 01:05:35;;;;;;;99.67;2.57;;;22.60;48.50;;;;;;4981340;28;20433;-81
2023/07/02 01:08:05;;;;;;;99.80;2.57;;;22.70;47.20;;;;;;4981141;28;20173;-81
2023/07/02 01:10:32;;;;;;;99.87;2.60;;;22.50;47.80;;;;;;4981909;28;20399;-81
2023/07/02 01:13:01;;;;;;;99.60;2.70;;;22.40;48.70;;;;;;4982489;28;20460;-81
2023/07/02 01:15:27;;;;;;;100.10;2.97;;;22.50;48.10;;;;;;4981232;28;20578;-81
2023/07/02 01:17:53;;;;;;;99.67;2.40;;;22.50;48.50;;;;;;4980937;28;20424;-81
2023/07/02 01:20:20;;;;;;;100.10;2.87;;;22.40;49.00;;;;;;4980958;28;20178;-81
2023/07/02 01:22:48;;;;;;;99.57;2.40;;;22.40;48.20;;;;;;4981327;28;20467;-81
2023/07/02 01:25:15;;;;;;;100.43;3.07;;;22.30;48.50;;;;;;4979970;28;20433;-81
2023/07/02 01:27:41;;;;;;;99.50;2.40;;;22.40;48.80;;;;;;4981152;28;20448;-81
2023/07/02 01:30:08;;;;;;;99.67;2.50;;;22.30;47.40;;;;;;4981225;28;20965;-81
2023/07/02 01:32:33;;;;;;;104.07;3.80;;;22.20;48.10;;;;;;4980147;28;20216;-81
2023/07/02 01:35:00;;;;;;;99.87;2.57;;;22.20;47.80;;;;;;4980698;28;20424;-81
2023/07/02 01:37:26;;;;;;;99.70;2.60;;;22.20;47.60;;;;;;4980342;28;20184;-81
2023/07/02 01:39:52;;;;;;;100.17;2.97;;;22.10;48.00;;;;;;4979733;28;20453;-81
2023/07/02 01:42:18;;;;;;;99.97;3.00;;;22.00;48.10;;;;;;4979870;28;20745;-81
2023/07/02 01:44:47;;;;;;;99.37;2.40;;;22.30;46.60;;;;;;4980252;28;20171;-81
2023/07/02 01:47:12;;;;;;;99.83;2.60;;;22.30;46.50;;;;;;4980377;28;20831;-81
2023/07/02 01:49:38;;;;;;;99.77;2.60;;;22.10;47.70;;;;;;4980962;28;20469;-81
2023/07/02 01:52:05;;;;;;;99.73;2.50;;;22.10;46.30;;;;;;4979518;28;20510;-81
2023/07/02 01:54:32;;;;;;;99.67;2.53;;;22.00;47.10;;;;;;5013728;23;20286;-73
2023/07/02 01:56:57;;;;;;;99.87;2.50;;;21.90;47.30;;;;;;4993599;28;20419;-73
2023/07/02 01:59:24;;;;;;;99.70;2.40;;;21.80;47.40;;;;;;4992165;28;20417;-73
2023/07/02 02:01:50;;;;;;;100.03;2.70;;;21.80;48.00;;;;;;4993720;28;20191;-73
2023/07/02 02:04:15;;;;;;;100.10;2.60;;;21.80;48.00;;;;;;4993443;28;20431;-73
2023/07/02 02:06:41;;;;;;;100.07;2.90;;;21.60;48.20;;;;;;4993433;28;20417;-73
2023/07/02 02:09:07;;;;;;;100.17;2.80;;;21.60;48.10;;;;;;4993483;28;20214;-73
2023/07/02 02:11:39;;;;;;;99.80;2.70;;;21.60;48.40;;;;;;4993695;28;20185;-74
2023/07/02 02:14:05;;;;;;;99.90;2.80;;;21.50;48.50;;;;;;4993273;28;20475;-74
2023/07/02 02:16:30;;;;;;;99.47;2.20;;;21.50;49.40;;;;;;4993068;28;20807;-74
2023/07/02 02:18:56;;;;;;;99.77;2.70;;;21.50;49.40;;;;;;4993148;28;20206;-74
2023/07/02 02:21:22;;;;;;;99.80;2.60;;;21.50;49.20;;;;;;4993687;28;20182;-73
2023/07/02 02:23:48;;;;;;;99.47;2.37;;;21.50;49.60;;;;;;4992965;28;20221;-73
2023/07/02 02:26:14;;;;;;;99.77;2.60;;;21.60;49.70;;;;;;4993245;28;20418;-73
2023/07/02 02:28:42;;;;;;;99.87;2.50;;;21.50;49.00;;;;;;4993038;28;20406;-74
2023/07/02 02:31:07;;;;;;;99.80;2.50;;;21.50;48.30;;;;;;4992922;28;20418;-73
2023/07/02 02:33:35;;;;;;;100.37;2.60;;;21.50;48.60;;;;;;4992980;28;20461;-74
2023/07/02 02:36:03;;;;;;;99.90;2.60;;;21.40;48.30;;;;;;4992113;28;20540;-73
2023/07/02 02:38:29;;;;;;;99.70;2.33;;;21.30;49.20;;;;;;4992722;28;20420;-73
2023/07/02 02:40:54;;;;;;;100.70;2.50;;;21.40;50.00;;;;;;4991642;28;20417;-73
2023/07/02 02:43:20;;;;;;;100.57;2.70;;;21.40;49.50;;;;;;4992850;28;20420;-74
2023/07/02 02:45:47;;;;;;;100.30;3.03;;;21.40;49.60;;;;;;4992748;28;20540;-73
2023/07/02 02:48:12;;;;;;;99.97;2.57;;;21.30;49.20;;;;;;4992792;28;20413;-73
2023/07/02 02:50:42;;;;;;;99.67;2.30;;;21.30;50.10;;;;;;4993133;28;20415;-73
2023/07/02 02:53:08;;;;;;;100.03;2.50;;;21.30;50.50;;;;;;4992315;28;20225;-73
2023/07/02 02:55:35;;;;;;;100.17;2.80;;;21.30;50.30;;;;;;4992602;28;20445;-74
2023/07/02 02:58:01;;;;;;;100.43;2.87;;;21.40;49.20;;;;;;4992651;28;20178;-74
2023/07/02 03:00:26;;;;;;;99.90;2.57;;;21.20;50.10;;;;;;4992607;28;21046;-73
2023/07/02 03:02:52;;;;;;;99.80;2.50;;;21.40;50.10;;;;;;4992733;28;20174;-76
2023/07/02 03:05:17;;;;;;;99.97;2.60;;;21.50;49.90;;;;;;4992033;28;20276;-75
2023/07/02 03:07:43;;;;;;;100.67;3.13;;;21.40;50.30;;;;;;4992664;28;20179;-73
2023/07/02 03:10:09;;;;;;;100.37;2.93;;;21.30;49.10;;;;;;4992413;28;20174;-73
2023/07/02 03:12:34;;;;;;;99.87;2.50;;;21.40;49.30;;;;;;4992437;28;20201;-73
2023/07/02 03:15:00;;;;;;;99.77;2.40;;;21.40;49.90;;;;;;4991976;28;20265;-74
2023/07/02 03:17:25;;;;;;;100.07;2.63;;;21.50;49.80;;;;;;4992251;28;20265;-74
2023/07/02 03:19:51;;;;;;;99.53;2.20;;;21.40;50.10;;;;;;4992351;28;20181;-73
2023/07/02 03:22:17;;;;;;;99.97;2.67;;;21.20;50.60;;;;;;4992326;28;20192;-73
2023/07/02 03:24:43;;;;;;;100.17;2.73;;;21.20;51.20;;;;;;4992224;28;20713;-74
2023/07/02 03:27:08;;;;;;;100.17;2.80;;;21.20;51.00;;;;;;4992291;28;20167;-74
2023/07/02 03:29:35;;;;;;;99.90;2.60;;;21.40;51.50;;;;;;4992201;28;20786;-74
2023/07/02 03:32:01;;;;;;;99.87;2.60;;;21.50;49.30;;;;;;4992029;28;20170;-74
2023/07/02 03:34:27;;;;;;;99.97;2.70;;;21.50;49.10;;;;;;4991795;28;20461;-74
2023/07/02 03:36:53;;;;;;;99.97;2.73;;;21.30;49.20;;;;;;4992090;28;20409;-73
2023/07/02 03:39:19;;;;;;;100.50;2.90;;;20.40;54.00;;;;;;4992057;28;20178;-74
2023/07/02 03:41:44;;;;;;;100.87;3.00;;;20.50;55.00;;;;;;4992183;28;20179;-75
2023/07/02 03:44:10;;;;;;;99.57;2.33;;;20.30;58.20;;;;;;4991677;28;20202;-73
2023/07/02 03:46:36;;;;;;;99.97;2.70;;;20.60;56.50;;;;;;4991903;28;20807;-73
2023/07/02 03:49:03;;;;;;;99.77;2.50;;;20.40;56.00;;;;;;4996061;28;20277;-73
2023/07/02 03:51:29;;;;;;;99.70;2.40;;;19.70;60.40;;;;;;4996165;28;20212;-75
2023/07/02 03:53:54;;;;;;;100.47;2.70;;;18.90;68.20;;;;;;4995823;28;20478;-75
2023/07/02 03:56:20;;;;;;;100.70;2.73;;;18.40;74.00;;;;;;4995692;28;20499;-73
2023/07/02 03:58:46;;;;;;;100.10;2.50;;;18.40;76.60;;;;;;4995797;28;20235;-73
2023/07/02 04:01:12;;;;;;;100.27;2.50;;;18.50;71.80;;;;;;4995893;28;20178;-74
2023/07/02 04:03:38;;;;;;;100.20;2.40;;;18.70;71.90;;;;;;4995858;28;20197;-74
2023/07/02 04:06:05;;;;;;;100.33;2.50;;;18.80;70.10;;;;;;4995330;28;20416;-73
2023/07/02 04:08:31;;;;;;;100.60;2.87;;;18.60;71.10;;;;;;4995847;28;20519;-75
2023/07/02 04:10:57;;;;;;;100.37;2.53;;;18.90;73.50;;;;;;4995886;28;20429;-76
2023/07/02 04:13:22;;;;;;;100.27;2.40;;;18.50;73.40;;;;;;4995378;28;20987;-74
2023/07/02 04:15:48;;;;;;;100.37;2.47;;;18.50;73.10;;;;;;4995427;28;20181;-73
2023/07/02 04:18:14;;;;;;;100.40;2.60;;;19.20;71.10;;;;;;4995588;28;20169;-73
2023/07/02 04:20:39;;;;;;;100.80;2.77;;;18.60;73.60;;;;;;4994279;28;20518;-74
2023/07/02 04:23:06;;;;;;;101.87;2.80;;;18.30;73.50;;;;;;4995582;28;20223;-73
2023/07/02 04:25:31;;;;;;;100.80;2.93;;;18.80;73.00;;;;;;4994961;28;20261;-74
2023/07/02 04:27:58;;;;;;;100.27;2.47;;;18.90;70.00;;;;;;4996120;28;20838;-73
2023/07/02 04:30:24;;;;;;;100.77;2.60;;;19.30;65.40;;;;;;4995478;28;20180;-73
2023/07/02 04:32:51;;;;;;;100.87;2.60;;;18.20;70.70;;;;;;4995141;28;20542;-73
2023/07/02 04:35:16;;;;;;;101.07;2.90;;;18.60;74.30;;;;;;4994970;28;20403;-73
2023/07/02 04:37:42;;;;;;;100.63;2.50;;;19.20;64.20;;;;;;4995361;28;20844;-73
2023/07/02 04:40:09;;;;;;;100.60;2.70;;;20.10;59.30;;;;;;4995073;28;20171;-74
2023/07/02 04:42:37;;;;;;;100.77;2.60;;;19.20;63.30;;;;;;4995580;28;20208;-73
2023/07/02 04:45:08;;;;;;;100.87;2.60;;;19.50;61.60;;;;;;4994847;28;20457;-73
2023/07/02 04:47:34;;;;;;;100.77;2.57;;;19.90;60.30;;;;;;4995328;28;20903;-73
2023/07/02 04:50:00;;;;;;;100.80;2.63;;;20.20;58.00;;;;;;4992730;28;20415;-74
2023/07/02 04:52:26;;;;;;;100.97;2.80;;;20.20;56.00;;;;;;4992864;28;20418;-74
2023/07/02 04:54:51;;;;;;;101.50;2.90;;;20.10;57.30;;;;;;4994353;28;20454;-74
2023/07/02 04:57:17;;;;;;;101.60;2.90;;;20.30;57.50;;;;;;4994062;28;20180;-74
2023/07/02 04:59:43;;;;;;;101.70;2.90;;;20.50;54.50;;;;;;4993968;28;20255;-74
2023/07/02 05:02:09;;;;;;;101.40;2.63;;;20.50;55.70;;;;;;4994894;28;20176;-74
2023/07/02 05:04:37;;;;;;;101.67;2.90;;;20.60;56.20;;;;;;4994791;28;20433;-75
2023/07/02 05:07:03;;;;;;;101.40;2.63;;;20.50;56.80;;;;;;4994492;28;20907;-75
2023/07/02 05:09:28;;;;;;;101.93;2.80;;;20.70;55.80;;;;;;4994568;28;20415;-74
2023/07/02 05:11:54;;;;;;;103.33;2.87;;;20.50;54.90;;;;;;4994589;28;20974;-72
2023/07/02 05:14:20;;;;;;;101.90;2.67;;;20.60;54.40;;;;;;4994370;28;20624;-72
2023/07/02 05:16:45;;;;;;;101.47;2.70;;;20.80;52.70;;;;;;4994387;28;20232;-72
2023/07/02 05:19:11;;;;;;;101.47;2.60;;;20.90;53.50;;;;;;4994944;28;20572;-72
2023/07/02 05:21:36;;;;;;;101.53;2.73;;;20.90;53.80;;;;;;4994427;28;20571;-72
2023/07/02 05:24:02;;;;;;;101.47;2.70;;;20.90;51.60;;;;;;4994321;28;20259;-72
2023/07/02 05:26:28;;;;;;;101.47;2.67;;;20.90;52.20;;;;;;4994476;28;20191;-72
2023/07/02 05:28:53;;;;;;;101.17;2.50;;;20.90;53.00;;;;;;4994784;28;20184;-72
2023/07/02 05:31:19;;;;;;;101.30;2.53;;;20.90;53.50;;;;;;4993937;28;20213;-72
2023/07/02 05:33:45;;;;;;;101.67;2.90;;;20.90;54.10;;;;;;4994196;28;20205;-72
2023/07/02 05:36:10;;;;;;;101.17;2.57;;;21.10;53.30;;;;;;4993807;28;20176;-73
2023/07/02 05:38:36;;;;;;;101.27;2.63;;;21.00;53.90;;;;;;4994170;28;20466;-73
2023/07/02 05:41:03;;;;;;;101.00;2.40;;;21.00;54.70;;;;;;4994323;28;20545;-73
2023/07/02 05:43:29;;;;;;;101.30;2.53;;;21.00;50.40;;;;;;4993938;28;20292;-73
2023/07/02 05:45:54;;;;;;;102.57;2.83;;;21.00;51.90;;;;;;4993817;28;20493;-73
2023/07/02 05:48:20;;;;;;;100.93;2.47;;;21.20;51.80;;;;;;4993759;28;20256;-73
2023/07/02 05:50:45;;;;;;;101.67;2.90;;;21.10;52.10;;;;;;4994017;28;20235;-74
2023/07/02 05:53:11;;;;;;;101.43;2.57;;;21.10;50.10;;;;;;4993397;28;20276;-73
2023/07/02 05:55:37;;;;;;;101.77;2.90;;;21.30;49.40;;;;;;4993777;28;20192;-73
2023/07/02 05:58:03;;;;;;;101.37;2.43;;;21.50;47.90;;;;;;4993479;28;20173;-73
2023/07/02 06:00:29;;;;;;;101.07;2.40;;;21.70;45.60;;;;;;4993812;28;20514;-73
2023/07/02 06:02:54;;;;;;;101.47;2.80;;;21.10;48.90;;;;;;4992476;28;20221;-73
2023/07/02 06:05:20;;;;;;;101.27;2.43;;;21.20;52.30;;;;;;4991509;28;20804;-74
2023/07/02 06:07:46;;;;;;;102.20;2.97;;;21.20;53.40;;;;;;4993063;28;20216;-73
2023/07/02 06:10:11;;;;;;;101.47;2.63;;;21.60;44.90;;;;;;4993628;28;20190;-73
2023/07/02 06:12:38;;;;;;;102.07;2.70;;;21.30;46.20;;;;;;4993325;28;20285;-73
2023/07/02 06:15:04;;;;;;;101.70;2.90;;;20.90;50.10;;;;;;4993174;28;20604;-73
2023/07/02 06:17:30;;;;;;;101.30;2.60;;;21.10;47.40;;;;;;4993380;28;20409;-73
2023/07/02 06:19:57;;;;;;;101.20;2.37;;;21.30;48.60;;;;;;4993494;28;20505;-73
2023/07/02 06:22:23;;;;;;;101.17;2.43;;;21.20;49.20;;;;;;4993327;28;20413;-73
2023/07/02 06:24:48;;;;;;;101.57;2.77;;;21.00;48.10;;;;;;4992852;28;20430;-74
2023/07/02 06:27:14;;;;;;;101.67;2.70;;;21.00;49.50;;;;;;4993186;28;20737;-73
2023/07/02 06:29:39;;;;;;;102.37;3.20;;;21.40;48.60;;;;;;4993445;28;20439;-73
2023/07/02 06:32:05;;;;;;;101.10;2.40;;;21.50;46.90;;;;;;4993033;28;20540;-73
2023/07/02 06:34:31;;;;;;;101.07;2.37;;;21.80;43.30;;;;;;4992951;28;20525;-73
2023/07/02 06:36:57;;;;;;;101.07;2.40;;;21.60;43.10;;;;;;4992823;28;20928;-74
2023/07/02 06:39:22;;;;;;;101.90;3.07;;;21.00;47.70;;;;;;4992824;28;20565;-74
2023/07/02 06:41:48;;;;;;;103.27;3.30;;;21.20;47.00;;;;;;4993059;28;20180;-73
2023/07/02 06:44:13;;;;;;;101.17;2.73;;;20.80;52.00;;;;;;4992749;28;20206;-73
2023/07/02 06:46:39;;;;;;;101.23;2.60;;;21.30;50.60;;;;;;4992547;28;20228;-73
2023/07/02 06:49:05;;;;;;;101.20;2.70;;;21.00;49.50;;;;;;4992723;28;20223;-74
2023/07/02 06:51:30;;;;;;;101.07;2.60;;;21.50;46.40;;;;;;4991480;28;20178;-73
2023/07/02 06:53:56;;;;;;;100.90;2.40;;;21.70;45.50;;;;;;4991282;28;20214;-74
2023/07/02 06:56:21;;;;;;;101.10;2.73;;;21.30;44.10;;;;;;4992319;28;20178;-73
2023/07/02 06:58:47;;;;;;;101.77;3.17;;;21.00;49.70;;;;;;4991502;28;20646;-74
2023/07/02 07:01:12;;;;;;;100.90;2.50;;;21.30;51.40;;;;;;4992529;28;20173;-73
2023/07/02 07:03:38;;;;;;;100.87;2.50;;;20.60;47.60;;;;;;4992650;28;20734;-73
2023/07/02 07:06:04;;;;;;;100.77;2.47;;;19.90;51.20;;;;;;4992385;28;20170;-73
2023/07/02 07:08:29;;;;;;;101.07;2.80;;;20.20;54.50;;;;;;4992524;28;20175;-74
2023/07/02 07:10:55;;;;;;;100.77;2.50;;;20.30;51.90;;;;;;4990834;28;20182;-74
2023/07/02 07:13:21;;;;;;;101.30;2.73;;;20.60;50.70;;;;;;4991529;28;20206;-74
2023/07/02 07:15:46;;;;;;;100.87;2.80;;;20.10;48.70;;;;;;4992224;28;20708;-73
2023/07/02 07:18:12;;;;;;;100.47;2.60;;;20.40;49.40;;;;;;4992519;28;20317;-74
2023/07/02 07:20:40;;;;;;;100.17;2.30;;;20.80;49.30;;;;;;4992064;28;20644;-73
2023/07/02 07:23:06;;;;;;;100.67;2.63;;;20.90;46.40;;;;;;4991541;28;21173;-76
2023/07/02 07:25:31;;;;;;;100.57;2.57;;;20.70;46.40;;;;;;4992073;28;20512;-75
2023/07/02 07:27:59;;;;;;;100.47;2.70;;;20.50;49.70;;;;;;4992077;28;20407;-74
2023/07/02 07:30:25;;;;;;;100.87;3.10;;;20.60;49.20;;;;;;4992279;28;20183;-73
2023/07/02 07:32:51;;;;;;;101.07;3.10;;;20.50;47.20;;;;;;4992491;28;20447;-74
2023/07/02 07:35:17;;;;;;;101.30;2.80;;;20.30;48.30;;;;;;4991521;28;20275;-74
2023/07/02 07:37:44;;;;;;;100.47;2.57;;;19.70;51.90;;;;;;4992171;28;20415;-73
2023/07/02 07:40:10;;;;;;;99.90;2.30;;;18.70;52.00;;;;;;4992048;28;20418;-73
2023/07/02 07:42:35;;;;;;;100.17;2.50;;;19.70;50.20;;;;;;4992128;28;20439;-73
2023/07/02 07:45:03;;;;;;;101.07;2.90;;;19.80;52.50;;;;;;4991442;28;21000;-73
2023/07/02 07:47:28;;;;;;;99.97;2.50;;;19.60;49.30;;;;;;4992000;28;20180;-73
2023/07/02 07:49:54;;;;;;;100.70;3.13;;;20.00;48.20;;;;;;4992368;28;20912;-74
2023/07/02 07:52:20;;;;;;;99.70;2.43;;;19.80;50.00;;;;;;4991854;28;20229;-73
2023/07/02 07:54:46;;;;;;;100.13;2.87;;;19.70;48.60;;;;;;4991433;28;20683;-73
2023/07/02 07:57:11;;;;;;;99.70;2.63;;;20.10;49.00;;;;;;4991932;28;20184;-73
2023/07/02 07:59:37;;;;;;;103.10;3.07;;;20.30;46.90;;;;;;4992034;28;20175;-73
2023/07/02 08:02:03;;;;;;;99.97;2.70;;;20.50;46.70;;;;;;4991773;28;20276;-74
2023/07/02 08:04:29;;;;;;;100.80;2.80;;;20.00;46.40;;;;;;4991627;28;20192;-74
2023/07/02 08:06:55;;;;;;;102.77;3.17;;;20.00;48.70;;;;;;4991714;28;20432;-73
2023/07/02 08:09:21;;;;;;;99.27;2.63;;;20.40;47.50;;;;;;4991874;28;20853;-73
2023/07/02 08:11:46;;;;;;;99.97;3.10;;;20.40;46.70;;;;;;4991823;28;20648;-73
2023/07/02 08:14:13;;;;;;;99.57;2.90;;;21.10;43.80;;;;;;4991573;28;20466;-75
2023/07/02 08:16:38;;;;;;;99.63;2.80;;;21.10;44.00;;;;;;4991542;28;20173;-73
2023/07/02 08:19:05;;;;;;;99.50;2.53;;;21.60;44.60;;;;;;4991355;28;20954;-73
2023/07/02 08:21:30;;;;;;;101.57;3.43;;;21.90;41.00;;;;;;4991471;28;20166;-73
2023/07/02 08:23:57;;;;;;;99.70;3.20;;;21.90;41.40;;;;;;4991599;28;20932;-74
2023/07/02 08:26:23;;;;;;;101.03;3.20;;;22.50;40.40;;;;;;4991437;28;20274;-73
2023/07/02 08:28:48;;;;;;;98.57;2.40;;;23.30;37.90;;;;;;4991713;28;20499;-73
2023/07/02 08:31:14;;;;;;;99.07;2.93;;;21.90;39.50;;;;;;4991040;28;20652;-73
2023/07/02 08:33:40;;;;;;;100.43;3.27;;;21.30;42.90;;;;;;4991070;28;20210;-73
2023/07/02 08:36:05;;;;;;;100.27;3.37;;;21.20;42.80;;;;;;4993919;28;20200;-74
2023/07/02 08:38:31;;;;;;;99.77;3.33;;;20.60;43.00;;;;;;4994368;28;20454;-73
2023/07/02 08:40:56;;;;;;;99.23;3.13;;;20.60;42.70;;;;;;4995348;28;20175;-73
2023/07/02 08:43:25;;;;;;;98.77;3.23;;;20.80;43.20;;;;;;4994792;28;20194;-73
2023/07/02 08:45:51;;;;;;;98.90;3.30;;;21.00;42.60;;;;;;4994919;28;20189;-75
2023/07/02 08:48:22;;;;;;;98.80;3.10;;;20.20;40.50;;;;;;4995158;28;20907;-73
2023/07/02 08:50:48;;;;;;;98.27;3.20;;;21.30;42.00;;;;;;4995136;28;20400;-75
2023/07/02 08:53:14;;;;;;;98.43;2.93;;;21.50;41.50;;;;;;4994434;28;20472;-74
2023/07/02 08:55:40;;;;;;;97.77;2.63;;;21.80;39.30;;;;;;5022364;23;20492;-72
2023/07/02 08:58:06;;;;;;;99.77;3.03;;;21.10;39.60;;;;;;4992946;28;20441;-73
2023/07/02 09:00:36;;;;;;;99.37;3.27;;;21.00;39.40;;;;;;4994643;28;20177;-72
2023/07/02 09:03:18;;;;;;;100.20;2.97;;;21.20;39.30;;;;;;4993463;28;20217;-72
2023/07/02 09:05:52;;;;;;;97.63;2.83;;;20.90;40.10;;;;;;4993253;28;20441;-72
2023/07/02 09:08:24;;;;;;;99.50;3.23;;;21.80;41.30;;;;;;4993461;28;20505;-73
2023/07/02 09:10:50;;;;;;;97.50;3.00;;;22.20;37.70;;;;;;4994566;28;20435;-73
2023/07/02 09:13:16;;;;;;;97.43;2.83;;;21.30;37.10;;;;;;4992634;28;20540;-72
2023/07/02 09:15:42;;;;;;;96.90;2.57;;;20.90;39.80;;;;;;4974940;28;20767;-72
2023/07/02 09:18:21;;;;;;;98.10;3.10;;;21.10;38.20;;;;;;4975080;28;20413;-73
2023/07/02 09:20:51;;;;;;;97.27;2.80;;;21.50;37.20;;;;;;4975150;28;20271;-73
2023/07/02 09:23:16;;;;;;;97.93;3.07;;;21.40;36.40;;;;;;4974792;28;20546;-73
2023/07/02 09:25:42;;;;;;;96.87;2.80;;;21.60;35.80;;;;;;4973398;28;20542;-72
2023/07/02 09:28:34;;;;;;;98.27;3.10;;;22.10;35.70;;;;;;4974951;28;20258;-72
2023/07/02 09:30:59;;;;;;;96.67;3.00;;;22.00;34.10;;;;;;4981096;28;20189;-72
2023/07/02 09:33:27;;;;;;;96.93;2.90;;;21.80;36.00;;;;;;4994210;28;20446;-72
2023/07/02 09:35:52;;;;;;;97.27;3.37;;;22.30;35.40;;;;;;4994048;28;20390;-72
2023/07/02 09:38:19;;;;;;;96.07;2.67;;;22.20;34.10;;;;;;4994161;28;20406;-72
2023/07/02 09:40:55;;;;;;;96.27;2.80;;;22.20;33.40;;;;;;4993998;28;20174;-72
2023/07/02 09:43:21;;;;;;;97.60;3.33;;;22.00;34.30;;;;;;4994127;28;20394;-73
2023/07/02 09:45:50;;;;;;;96.40;2.80;;;22.80;32.80;;;;;;4993489;28;20947;-73
2023/07/02 09:48:17;;;;;;;97.07;3.30;;;22.70;33.20;;;;;;4994187;28;20424;-72
2023/07/02 09:50:47;;;;;;;98.30;2.80;;;22.40;32.50;;;;;;4994034;28;20496;-73
2023/07/02 09:53:13;;;;;;;96.57;2.87;;;22.80;31.40;;;;;;4993652;28;20488;-73
2023/07/02 09:55:41;;;;;;;97.37;2.90;;;22.60;31.90;;;;;;4993612;28;20449;-73
2023/07/02 09:58:07;;;;;;;96.77;3.00;;;22.60;32.70;;;;;;4993684;28;20502;-73
2023/07/02 10:00:33;;;;;;;97.10;3.47;;;22.50;31.30;;;;;;4993974;28;20688;-72
2023/07/02 10:03:00;;;;;;;96.87;3.37;;;22.50;30.30;;;;;;4992430;28;20192;-72
2023/07/02 10:05:29;;;;;;;99.00;3.07;;;22.70;31.10;;;;;;4993515;28;20193;-73
2023/07/02 10:08:16;;;;;;;97.30;2.93;;;22.80;30.50;;;;;;4993403;28;20445;-72
2023/07/02 10:10:42;;;;;;;96.80;3.53;;;23.00;29.80;;;;;;4993708;28;20915;-72
2023/07/02 10:13:08;;;;;;;95.93;2.87;;;23.00;28.50;;;;;;4993349;28;20459;-73
2023/07/02 10:15:37;;;;;;;96.33;3.30;;;22.20;29.10;;;;;;4993022;28;20192;-73
2023/07/02 10:18:04;;;;;;;96.20;3.00;;;21.90;29.80;;;;;;4993417;28;20708;-73
2023/07/02 10:20:37;;;;;;;95.13;2.80;;;22.10;29.20;;;;;;4992232;28;20512;-72
2023/07/02 10:23:05;;;;;;;95.37;2.67;;;22.20;29.40;;;;;;4993077;28;20400;-72
2023/07/02 10:25:37;;;;;;;97.30;3.57;;;23.00;29.40;;;;;;4993033;28;20424;-72
2023/07/02 10:28:14;;;;;;;96.67;3.30;;;23.40;28.10;;;;;;4993150;28;20662;-73
2023/07/02 10:30:39;;;;;;;94.60;2.67;;;22.70;27.90;;;;;;4993410;28;20400;-72
2023/07/02 10:33:18;;;;;;;95.63;3.70;;;22.90;28.30;;;;;;4992738;28;20974;-72
2023/07/02 10:35:47;;;;;;;95.53;3.37;;;23.40;27.20;;;;;;4993036;28;20247;-72
2023/07/02 10:38:24;;;;;;;95.77;3.53;;;23.00;27.70;;;;;;4992918;28;20475;-73
2023/07/02 10:41:00;;;;;;;95.70;3.10;;;22.60;28.00;;;;;;4993064;28;20406;-73
2023/07/02 10:43:28;;;;;;;96.20;2.83;;;22.50;27.80;;;;;;4993037;28;20954;-73
2023/07/02 10:45:54;;;;;;;94.40;3.23;;;21.90;29.30;;;;;;4992604;28;20460;-72
2023/07/02 10:48:19;;;;;;;94.30;2.97;;;22.50;29.50;;;;;;4992785;28;20466;-72
2023/07/02 10:50:45;;;;;;;95.10;3.33;;;23.10;27.90;;;;;;4992938;28;20169;-73
2023/07/02 10:53:18;;;;;;;95.50;3.37;;;24.30;27.20;;;;;;4992470;28;20653;-73
2023/07/02 10:55:44;;;;;;;94.87;3.07;;;24.80;26.00;;;;;;4992158;28;20256;-73
2023/07/02 10:58:11;;;;;;;94.30;2.93;;;24.10;26.60;;;;;;4991873;28;20828;-72
2023/07/02 11:00:50;;;;;;;94.47;2.83;;;24.10;26.60;;;;;;4992741;28;20761;-74
2023/07/02 11:03:23;;;;;;;93.97;2.90;;;23.80;26.30;;;;;;4992580;28;20852;-72
2023/07/02 11:05:50;;;;;;;95.10;3.60;;;23.60;27.90;;;;;;4992250;28;20437;-72
2023/07/02 11:08:16;;;;;;;94.80;3.00;;;23.60;27.20;;;;;;4992729;28;20834;-72
2023/07/02 11:10:42;;;;;;;95.17;3.20;;;23.50;28.40;;;;;;4992949;28;20475;-72
2023/07/02 11:13:15;;;;;;;94.97;3.40;;;24.40;27.70;;;;;;4991189;28;20460;-73
2023/07/02 11:15:41;;;;;;;94.60;3.37;;;25.00;25.30;;;;;;4992384;28;20197;-73
2023/07/02 11:18:18;;;;;;;96.10;3.10;;;24.30;26.20;;;;;;4992207;28;20409;-75
2023/07/02 11:20:45;;;;;;;95.47;3.43;;;23.60;26.20;;;;;;4992332;28;20399;-73
2023/07/02 11:23:24;;;;;;;94.60;3.30;;;23.20;27.50;;;;;;4992137;28;20419;-72
2023/07/02 11:26:00;;;;;;;94.17;3.23;;;23.40;27.80;;;;;;4992118;28;20432;-72
2023/07/02 11:28:27;;;;;;;94.17;3.67;;;23.80;26.90;;;;;;4992140;28;20456;-72
2023/07/02 11:30:53;;;;;;;97.73;4.00;;;23.70;26.40;;;;;;4992382;28;20421;-72
2023/07/02 11:33:18;;;;;;;96.00;3.73;;;23.70;26.40;;;;;;4991806;28;20452;-72
2023/07/02 11:35:44;;;;;;;94.90;3.50;;;23.70;26.00;;;;;;4992058;28;20200;-73
2023/07/02 11:38:10;;;;;;;96.73;3.30;;;24.30;25.20;;;;;;4992040;28;20660;-73
2023/07/02 11:40:36;;;;;;;95.30;3.67;;;25.20;24.20;;;;;;4992256;28;20226;-74
2023/07/02 11:43:02;;;;;;;93.90;3.50;;;25.00;24.30;;;;;;4991697;28;20413;-73
2023/07/02 11:45:28;;;;;;;94.00;3.40;;;25.60;23.10;;;;;;4992013;28;20439;-73
2023/07/02 11:47:54;;;;;;;94.37;3.70;;;25.70;23.30;;;;;;4991914;28;20205;-74
2023/07/02 11:50:19;;;;;;;92.70;2.93;;;24.50;22.40;;;;;;4990811;28;20499;-72
2023/07/02 11:52:45;;;;;;;93.00;2.70;;;24.90;22.10;;;;;;4991714;28;20197;-72
2023/07/02 11:55:11;;;;;;;94.10;3.20;;;24.90;21.40;;;;;;4991553;28;20210;-73
2023/07/02 11:57:36;;;;;;;94.57;3.30;;;25.60;21.60;;;;;;4991963;28;20177;-72
2023/07/02 12:00:03;;;;;;;94.00;3.47;;;25.10;21.20;;;;;;4991946;28;20170;-74
2023/07/02 12:02:28;;;;;;;93.47;3.60;;;24.40;21.40;;;;;;4992016;28;20550;-73
2023/07/02 12:04:54;;;;;;;92.77;3.00;;;25.00;21.80;;;;;;4991335;28;20436;-73
2023/07/02 12:07:19;;;;;;;91.50;2.63;;;25.70;19.20;;;;;;4991817;28;20169;-73
2023/07/02 12:09:45;;;;;;;91.80;3.20;;;26.30;19.40;;;;;;4994354;28;20170;-73
2023/07/02 12:12:11;;;;;;;96.00;3.57;;;26.90;19.30;;;;;;4995870;28;20198;-73
2023/07/02 12:14:37;;;;;;;92.17;3.40;;;27.00;18.50;;;;;;4995324;28;20232;-74
2023/07/02 12:17:04;;;;;;;91.37;2.80;;;26.70;19.50;;;;;;4996069;28;20161;-73
2023/07/02 12:19:29;;;;;;;91.17;3.13;;;26.70;20.00;;;;;;4995589;28;20405;-73
2023/07/02 12:21:55;;;;;;;91.07;2.83;;;26.90;19.50;;;;;;4995723;28;20414;-73
2023/07/02 12:24:21;;;;;;;91.50;3.23;;;27.50;18.50;;;;;;4995311;28;20193;-74
2023/07/02 12:26:46;;;;;;;90.57;2.70;;;25.90;19.30;;;;;;4995340;28;20180;-73
2023/07/02 12:29:12;;;;;;;91.90;3.47;;;25.90;19.30;;;;;;4995183;28;20178;-74
2023/07/02 12:31:37;;;;;;;90.57;2.60;;;25.30;19.80;;;;;;4995688;28;20220;-73